Time;durP1;ratioP1;P1;durP2;ratioP2;P2;SDS_P1;SDS_P2;PMS_P1;PMS_P2;Temp;Humidity;BMP_temperature;BMP_pressure;BME280_temperature;BME280_humidity;BME280_pressure;Samples;Min_cycle;Max_cycle;Signal;HPM_P1;HPM_P2
2022/07/14 00:01:00;;;;;;;1.63;1.50;;;26.80;49.40;;;;;;4993755;28;20434;-48
2022/07/14 00:03:30;;;;;;;2.10;2.00;;;26.80;49.60;;;;;;4983949;28;20461;-49
2022/07/14 00:05:58;;;;;;;1.90;1.80;;;26.80;49.50;;;;;;4995750;28;20462;-48
2022/07/14 00:08:27;;;;;;;2.30;1.30;;;26.80;49.60;;;;;;4991382;28;20853;-48
2022/07/14 00:10:55;;;;;;;1.60;1.50;;;26.80;49.50;;;;;;4993065;28;20473;-49
2022/07/14 00:13:23;;;;;;;1.90;1.73;;;26.80;49.70;;;;;;4992595;28;20461;-50
2022/07/14 00:15:51;;;;;;;2.93;2.00;;;26.80;49.50;;;;;;4993752;28;20885;-50
2022/07/14 00:18:19;;;;;;;2.40;1.40;;;26.80;49.60;;;;;;4990746;28;20465;-52
2022/07/14 00:20:50;;;;;;;1.70;1.40;;;26.80;49.60;;;;;;4993487;28;20445;-50
2022/07/14 00:23:20;;;;;;;1.50;1.30;;;26.80;49.60;;;;;;4993201;28;20803;-49
2022/07/14 00:25:48;;;;;;;1.80;1.43;;;26.80;49.60;;;;;;4991487;28;20519;-49
2022/07/14 00:28:17;;;;;;;2.10;1.97;;;26.80;49.50;;;;;;4992538;28;20540;-49
2022/07/14 00:30:45;;;;;;;1.83;1.67;;;26.80;49.60;;;;;;5014525;28;20507;-48
2022/07/14 00:33:14;;;;;;;2.17;1.57;;;26.80;49.60;;;;;;4994902;28;20446;-48
2022/07/14 00:35:42;;;;;;;2.80;2.07;;;26.80;49.60;;;;;;4992840;28;20477;-49
2022/07/14 00:38:12;;;;;;;2.30;1.87;;;26.80;49.60;;;;;;4992500;28;20442;-49
2022/07/14 00:40:40;;;;;;;2.10;1.87;;;26.80;49.60;;;;;;4987332;28;20442;-50
2022/07/14 00:43:08;;;;;;;2.30;2.10;;;26.80;49.50;;;;;;5006330;28;20488;-50
2022/07/14 00:45:36;;;;;;;1.57;1.47;;;26.80;49.40;;;;;;5007688;28;20441;-48
2022/07/14 00:48:05;;;;;;;2.00;1.80;;;26.80;49.50;;;;;;4991107;28;20442;-49
2022/07/14 00:50:34;;;;;;;1.73;1.63;;;26.80;49.40;;;;;;4989690;28;20448;-49
2022/07/14 00:53:08;;;;;;;2.27;1.80;;;26.80;49.50;;;;;;4991448;28;20461;-51
2022/07/14 00:55:38;;;;;;;1.90;1.80;;;26.80;49.50;;;;;;4987847;28;20455;-50
2022/07/14 00:58:06;;;;;;;1.83;1.63;;;26.80;49.50;;;;;;4990887;28;20549;-51
2022/07/14 01:00:34;;;;;;;1.63;1.53;;;26.80;49.60;;;;;;4993116;28;20864;-49
2022/07/14 01:03:05;;;;;;;2.00;1.77;;;26.80;49.60;;;;;;4988701;28;20840;-49
2022/07/14 01:05:34;;;;;;;1.80;1.70;;;26.80;49.50;;;;;;4992503;28;20430;-49
2022/07/14 01:08:02;;;;;;;2.40;1.63;;;26.80;49.50;;;;;;4990834;28;20450;-50
2022/07/14 01:10:31;;;;;;;1.90;1.67;;;26.80;49.60;;;;;;4990685;28;20492;-49
2022/07/14 01:13:03;;;;;;;1.80;1.70;;;26.80;49.50;;;;;;4990518;28;20585;-48
2022/07/14 01:15:31;;;;;;;1.60;1.50;;;26.80;49.50;;;;;;4991136;28;20500;-48
2022/07/14 01:18:00;;;;;;;1.90;1.80;;;26.80;49.50;;;;;;4986469;28;20477;-49
2022/07/14 01:20:28;;;;;;;1.60;1.50;;;26.80;49.50;;;;;;4988118;28;20553;-51
2022/07/14 01:22:58;;;;;;;1.50;1.40;;;26.80;49.60;;;;;;4997634;28;20453;-49
2022/07/14 01:25:26;;;;;;;1.50;1.40;;;26.80;49.60;;;;;;4986843;28;20445;-48
2022/07/14 01:27:55;;;;;;;1.43;1.33;;;26.80;49.60;;;;;;4993181;28;20448;-50
2022/07/14 01:30:26;;;;;;;1.90;1.80;;;26.80;49.50;;;;;;5007219;28;20464;-49
2022/07/14 01:32:54;;;;;;;2.10;1.90;;;26.80;49.50;;;;;;4989491;28;20438;-47
2022/07/14 01:35:22;;;;;;;1.90;1.50;;;26.80;49.50;;;;;;4987080;28;20473;-48
2022/07/14 01:37:51;;;;;;;3.23;1.40;;;26.80;49.50;;;;;;5001168;28;20438;-50
2022/07/14 01:40:21;;;;;;;2.10;1.90;;;26.80;49.50;;;;;;4993428;28;20933;-50
2022/07/14 01:42:49;;;;;;;2.37;1.60;;;26.80;49.50;;;;;;4990239;28;20832;-49
2022/07/14 01:45:17;;;;;;;2.40;1.80;;;26.80;49.40;;;;;;4992632;28;21027;-49
2022/07/14 01:47:45;;;;;;;1.97;1.50;;;26.80;49.60;;;;;;4990146;28;20815;-49
2022/07/14 01:50:14;;;;;;;1.80;1.43;;;26.80;49.60;;;;;;4997215;28;20478;-49
2022/07/14 01:52:44;;;;;;;2.80;1.50;;;26.80;49.60;;;;;;4990923;28;20539;-48
2022/07/14 01:55:12;;;;;;;1.57;1.47;;;26.80;49.70;;;;;;5000688;28;20469;-49
2022/07/14 01:57:43;;;;;;;1.70;1.60;;;26.80;49.60;;;;;;4989852;28;20509;-49
2022/07/14 02:00:13;;;;;;;1.87;1.77;;;26.80;49.60;;;;;;4989989;28;20477;-49
2022/07/14 02:02:51;;;;;;;1.83;1.73;;;26.80;49.50;;;;;;4987336;28;20445;-51
2022/07/14 02:05:20;;;;;;;1.63;1.53;;;26.80;49.60;;;;;;4990127;28;20619;-49
2022/07/14 02:07:50;;;;;;;2.23;1.93;;;26.80;49.60;;;;;;4990331;28;20536;-48
2022/07/14 02:13:10;;;;;;;1.73;1.63;;;26.80;49.70;;;;;;4989567;28;20525;-50
2022/07/14 02:15:39;;;;;;;2.13;1.70;;;26.80;49.50;;;;;;4990025;28;20478;-52
2022/07/14 02:18:07;;;;;;;2.43;2.23;;;26.80;49.50;;;;;;5001454;28;20457;-49
2022/07/14 02:20:36;;;;;;;1.60;1.50;;;26.80;49.50;;;;;;4990051;28;20968;-49
2022/07/14 02:23:04;;;;;;;1.87;1.70;;;26.80;49.60;;;;;;4994596;28;20492;-49
2022/07/14 02:25:32;;;;;;;1.70;1.60;;;26.80;49.50;;;;;;5005077;28;20866;-49
2022/07/14 02:28:00;;;;;;;1.70;1.60;;;26.80;49.50;;;;;;4989348;28;20448;-49
2022/07/14 02:30:29;;;;;;;1.10;1.00;;;26.80;49.60;;;;;;4982586;28;20434;-47
2022/07/14 02:32:57;;;;;;;1.67;1.57;;;26.80;49.60;;;;;;4988939;28;20446;-50
2022/07/14 02:35:26;;;;;;;2.77;1.83;;;26.80;49.70;;;;;;4991244;28;20512;-49
2022/07/14 02:37:54;;;;;;;2.43;1.77;;;26.80;49.60;;;;;;4990428;28;20473;-47
2022/07/14 02:40:22;;;;;;;2.60;1.60;;;26.70;49.40;;;;;;4991917;28;20484;-48
2022/07/14 02:42:50;;;;;;;1.40;1.30;;;26.70;49.40;;;;;;5004528;28;20451;-49
2022/07/14 02:45:19;;;;;;;1.83;1.20;;;26.80;49.60;;;;;;5006629;28;20834;-49
2022/07/14 02:47:49;;;;;;;1.40;1.30;;;26.70;49.70;;;;;;4985453;28;20988;-51
2022/07/14 02:50:17;;;;;;;3.43;1.60;;;26.80;49.70;;;;;;4989400;28;20466;-49
2022/07/14 02:52:45;;;;;;;1.60;1.50;;;26.70;49.60;;;;;;4991188;28;20434;-51
2022/07/14 02:55:14;;;;;;;1.63;1.53;;;26.70;49.60;;;;;;4988572;28;20503;-50
2022/07/14 02:57:45;;;;;;;1.70;1.60;;;26.70;49.70;;;;;;4989840;28;20492;-49
2022/07/14 03:00:14;;;;;;;1.90;1.60;;;26.70;49.70;;;;;;4990634;28;20481;-49
2022/07/14 03:02:42;;;;;;;1.57;1.47;;;26.70;49.50;;;;;;4984319;28;20860;-49
2022/07/14 03:05:12;;;;;;;1.40;1.30;;;26.70;49.60;;;;;;5003117;28;20496;-49
2022/07/14 03:07:41;;;;;;;2.23;1.40;;;26.70;49.70;;;;;;4990660;28;20550;-49
2022/07/14 03:10:10;;;;;;;2.00;1.63;;;26.70;49.70;;;;;;4999446;28;20541;-49
2022/07/14 03:12:46;;;;;;;1.90;1.60;;;26.70;49.60;;;;;;4989455;28;20814;-52
2022/07/14 03:15:14;;;;;;;1.97;1.87;;;26.70;49.60;;;;;;4987762;28;21000;-48
2022/07/14 03:17:43;;;;;;;1.53;1.40;;;26.70;49.60;;;;;;4985721;28;20980;-49
2022/07/14 03:20:13;;;;;;;1.47;1.37;;;26.70;49.70;;;;;;4996621;28;20495;-48
2022/07/14 03:22:43;;;;;;;2.00;1.40;;;26.70;50.80;;;;;;4990288;28;20477;-49
2022/07/14 03:25:18;;;;;;;1.60;1.50;;;26.70;49.70;;;;;;4983707;28;20475;-50
2022/07/14 03:27:51;;;;;;;1.90;1.20;;;26.70;49.70;;;;;;5031242;22;20531;-48
2022/07/14 03:30:22;;;;;;;1.40;1.30;;;26.70;50.90;;;;;;4970001;28;20463;-51
2022/07/14 03:32:50;;;;;;;1.70;1.60;;;26.70;49.80;;;;;;4971045;28;20436;-50
2022/07/14 03:35:20;;;;;;;2.53;1.60;;;26.70;49.80;;;;;;4969522;28;20493;-49
2022/07/14 03:37:48;;;;;;;1.97;1.77;;;26.70;49.70;;;;;;4949327;28;20443;-50
2022/07/14 03:40:33;;;;;;;1.60;1.50;;;26.70;49.70;;;;;;4950599;28;20524;-49
2022/07/14 03:43:01;;;;;;;2.13;1.30;;;26.70;49.60;;;;;;4947143;28;20447;-48
2022/07/14 03:45:31;;;;;;;1.50;1.40;;;26.60;49.70;;;;;;4943560;28;20610;-49
2022/07/14 03:47:59;;;;;;;1.33;1.23;;;26.60;49.70;;;;;;4949633;28;20489;-49
2022/07/14 03:50:29;;;;;;;1.10;1.10;;;26.60;49.80;;;;;;4947688;28;20450;-47
2022/07/14 03:52:57;;;;;;;1.60;1.50;;;26.60;49.80;;;;;;4934989;28;20440;-47
2022/07/14 03:55:25;;;;;;;1.50;1.40;;;26.70;50.00;;;;;;4945318;28;20499;-48
2022/07/14 03:57:54;;;;;;;1.90;1.30;;;26.60;50.00;;;;;;4950592;28;20427;-47
2022/07/14 04:00:22;;;;;;;1.63;1.53;;;26.60;50.00;;;;;;4950136;28;20546;-46
2022/07/14 04:02:54;;;;;;;1.70;1.60;;;26.60;49.90;;;;;;4940905;28;20498;-49
2022/07/14 04:05:26;;;;;;;1.63;1.53;;;26.60;49.80;;;;;;4939144;28;20839;-46
2022/07/14 04:08:03;;;;;;;1.40;1.30;;;26.60;49.80;;;;;;4951024;28;20447;-50
2022/07/14 04:10:44;;;;;;;1.60;1.50;;;26.60;49.80;;;;;;4941352;28;20461;-46
2022/07/14 04:13:12;;;;;;;1.60;1.50;;;26.60;49.80;;;;;;4957590;28;20535;-47
2022/07/14 04:15:41;;;;;;;1.67;1.30;;;26.60;49.70;;;;;;4964450;28;20841;-50
2022/07/14 04:18:10;;;;;;;2.60;1.50;;;26.60;49.90;;;;;;4938403;28;20452;-48
2022/07/14 04:20:39;;;;;;;2.43;1.70;;;26.60;49.80;;;;;;4944290;28;20841;-48
2022/07/14 04:23:09;;;;;;;1.60;1.40;;;26.50;49.80;;;;;;4944028;28;20491;-48
2022/07/14 04:25:37;;;;;;;1.63;1.53;;;26.60;50.00;;;;;;4951826;28;20856;-48
2022/07/14 04:28:05;;;;;;;2.10;1.53;;;26.60;49.80;;;;;;4949678;28;20966;-49
2022/07/14 04:30:33;;;;;;;1.50;1.40;;;26.60;49.80;;;;;;4954615;28;20474;-49
2022/07/14 04:33:09;;;;;;;1.63;1.23;;;26.50;49.90;;;;;;4952060;28;20447;-48
2022/07/14 04:35:38;;;;;;;1.60;1.30;;;26.60;50.00;;;;;;4943770;28;20805;-48
2022/07/14 04:38:08;;;;;;;1.83;1.60;;;26.60;50.00;;;;;;4943468;28;20446;-48
2022/07/14 04:40:48;;;;;;;1.37;1.27;;;26.50;50.00;;;;;;4948050;28;20455;-48
2022/07/14 04:43:17;;;;;;;1.47;1.37;;;26.60;55.10;;;;;;4951858;28;20470;-49
2022/07/14 04:45:47;;;;;;;1.23;1.13;;;26.50;50.00;;;;;;4953700;28;20522;-49
2022/07/14 04:48:16;;;;;;;1.37;1.17;;;26.50;51.50;;;;;;4948033;28;20515;-48
2022/07/14 04:53:36;;;;;;;1.53;1.40;;;26.50;50.00;;;;;;4951450;28;20869;-47
2022/07/14 04:56:23;;;;;;;1.47;1.30;;;26.50;50.00;;;;;;4948621;28;20479;-48
2022/07/14 04:59:14;;;;;;;1.60;1.50;;;26.50;50.00;;;;;;4956631;28;20474;-49
2022/07/14 05:01:42;;;;;;;1.93;1.30;;;26.50;50.10;;;;;;4959585;28;20949;-48
2022/07/14 05:04:11;;;;;;;1.53;1.43;;;26.50;50.10;;;;;;4949636;28;20884;-48
2022/07/14 05:06:39;;;;;;;1.63;1.50;;;26.50;50.80;;;;;;4953622;28;20460;-47
2022/07/14 05:09:09;;;;;;;1.40;1.30;;;26.50;50.00;;;;;;4950536;28;20731;-47
2022/07/14 05:11:39;;;;;;;1.40;1.20;;;26.50;50.00;;;;;;4956935;28;20850;-49
2022/07/14 05:14:07;;;;;;;2.40;1.30;;;26.50;50.10;;;;;;4953169;28;20455;-47
2022/07/14 05:16:36;;;;;;;2.10;1.50;;;26.50;50.10;;;;;;4948313;28;20878;-49
2022/07/14 05:19:25;;;;;;;1.67;1.43;;;26.50;50.20;;;;;;4958185;28;20462;-49
2022/07/14 05:21:53;;;;;;;1.47;1.37;;;26.50;50.20;;;;;;4949058;28;20454;-47
2022/07/14 05:24:24;;;;;;;1.77;1.30;;;26.50;50.10;;;;;;4944257;28;20487;-48
2022/07/14 05:26:52;;;;;;;1.57;1.37;;;26.50;50.20;;;;;;4951240;28;20981;-49
2022/07/14 05:29:21;;;;;;;1.47;1.20;;;26.50;50.20;;;;;;4948962;28;20558;-47
2022/07/14 05:31:49;;;;;;;1.47;1.37;;;26.50;50.10;;;;;;4948072;28;20444;-48
2022/07/14 05:34:17;;;;;;;1.30;1.20;;;26.40;50.10;;;;;;4940634;28;20504;-47
2022/07/14 05:36:47;;;;;;;1.23;0.97;;;26.40;50.20;;;;;;4951679;28;20475;-48
2022/07/14 05:39:15;;;;;;;1.70;1.47;;;26.40;50.20;;;;;;4952414;28;20513;-46
2022/07/14 05:41:45;;;;;;;2.10;1.40;;;26.40;50.30;;;;;;4952908;28;20447;-49
2022/07/14 05:44:13;;;;;;;1.50;1.20;;;26.40;50.30;;;;;;4943824;28;20477;-47
2022/07/14 05:46:41;;;;;;;1.90;1.10;;;26.40;50.20;;;;;;4950647;28;20474;-49
2022/07/14 05:49:09;;;;;;;1.30;1.00;;;26.40;50.30;;;;;;4942227;28;20468;-47
2022/07/14 05:51:38;;;;;;;3.60;1.60;;;26.40;50.20;;;;;;4956012;28;20469;-50
2022/07/14 05:54:07;;;;;;;3.60;1.30;;;26.40;50.20;;;;;;4949029;28;20507;-49
2022/07/14 05:56:35;;;;;;;2.00;1.30;;;26.40;50.20;;;;;;4946573;28;20883;-47
2022/07/14 05:59:05;;;;;;;2.10;1.33;;;26.40;50.20;;;;;;4949499;28;20515;-48
2022/07/14 06:01:53;;;;;;;2.40;1.30;;;26.40;50.20;;;;;;4959598;28;20447;-48
2022/07/14 06:04:22;;;;;;;1.00;0.90;;;26.40;50.30;;;;;;4948056;28;20480;-48
2022/07/14 06:06:51;;;;;;;2.90;1.50;;;26.40;50.40;;;;;;4951775;28;20882;-48
2022/07/14 06:09:21;;;;;;;2.80;1.47;;;26.40;50.30;;;;;;4949488;28;21087;-46
2022/07/14 06:11:49;;;;;;;4.27;1.97;;;26.40;50.30;;;;;;4941818;28;20508;-48
2022/07/14 06:14:21;;;;;;;3.00;1.43;;;26.40;50.30;;;;;;4949247;28;20918;-48
2022/07/14 06:16:49;;;;;;;2.10;1.90;;;26.40;50.20;;;;;;4961376;28;20527;-49
2022/07/14 06:19:17;;;;;;;1.87;1.30;;;26.40;50.30;;;;;;4951847;28;20506;-50
2022/07/14 06:21:45;;;;;;;2.60;1.43;;;26.40;50.30;;;;;;4946874;28;20506;-48
2022/07/14 06:24:13;;;;;;;1.60;1.50;;;26.40;50.40;;;;;;4951997;28;20503;-49
2022/07/14 06:26:43;;;;;;;2.70;1.60;;;26.40;50.30;;;;;;4951699;28;20535;-48
2022/07/14 06:29:13;;;;;;;1.77;1.67;;;26.40;50.40;;;;;;4950155;28;20471;-49
2022/07/14 06:31:43;;;;;;;1.40;1.30;;;26.40;50.30;;;;;;4947202;28;20445;-47
2022/07/14 06:34:16;;;;;;;2.57;1.60;;;26.40;50.30;;;;;;4952757;28;20467;-48
2022/07/14 06:36:54;;;;;;;2.73;1.40;;;26.40;50.30;;;;;;4949296;28;20538;-47
2022/07/14 06:39:23;;;;;;;1.37;1.23;;;26.40;50.40;;;;;;4949853;28;20481;-47
2022/07/14 06:41:53;;;;;;;4.03;1.83;;;26.40;50.40;;;;;;4951091;28;20979;-48
2022/07/14 06:44:26;;;;;;;2.10;1.60;;;26.30;50.30;;;;;;4953884;28;20481;-48
2022/07/14 06:46:56;;;;;;;1.53;1.43;;;26.30;50.40;;;;;;4941562;28;20475;-49
2022/07/14 06:49:25;;;;;;;1.37;1.20;;;26.30;50.30;;;;;;4948764;28;20521;-55
2022/07/14 06:51:54;;;;;;;1.47;1.23;;;26.30;50.30;;;;;;4954505;28;20514;-48
2022/07/14 06:54:25;;;;;;;1.90;1.60;;;26.30;50.40;;;;;;4940245;28;20487;-47
2022/07/14 06:56:53;;;;;;;1.93;1.27;;;26.30;50.40;;;;;;4951398;28;20563;-49
2022/07/14 06:59:22;;;;;;;2.30;1.47;;;26.30;50.40;;;;;;4957104;28;20854;-49
2022/07/14 07:01:50;;;;;;;2.10;1.90;;;26.30;50.50;;;;;;4947186;28;20439;-48
2022/07/14 07:04:20;;;;;;;1.60;1.40;;;26.30;50.50;;;;;;4943021;28;20455;-47
2022/07/14 07:06:54;;;;;;;1.90;1.37;;;26.30;50.50;;;;;;4957705;28;20866;-48
2022/07/14 07:09:22;;;;;;;2.33;1.60;;;26.30;50.50;;;;;;4939572;28;20873;-48
2022/07/14 07:11:51;;;;;;;2.20;1.53;;;26.30;50.50;;;;;;4951142;28;20462;-47
2022/07/14 07:14:19;;;;;;;1.63;1.50;;;26.30;50.50;;;;;;4951048;28;20468;-48
2022/07/14 07:16:48;;;;;;;1.33;1.23;;;26.30;50.50;;;;;;4945208;28;20474;-50
2022/07/14 07:19:17;;;;;;;2.37;1.73;;;26.30;50.50;;;;;;4941550;28;20466;-49
2022/07/14 07:21:47;;;;;;;1.53;1.40;;;26.30;50.50;;;;;;4949968;28;20436;-50
2022/07/14 07:24:16;;;;;;;1.80;1.40;;;26.30;50.50;;;;;;4945278;28;20919;-47
2022/07/14 07:26:44;;;;;;;1.37;1.27;;;26.30;50.50;;;;;;4951357;28;20514;-48
2022/07/14 07:29:12;;;;;;;1.27;1.10;;;26.30;50.50;;;;;;4951686;28;20455;-48
2022/07/14 07:31:40;;;;;;;2.63;1.43;;;26.30;50.50;;;;;;4951618;28;20435;-48
2022/07/14 07:34:21;;;;;;;1.90;1.70;;;26.30;50.50;;;;;;4948750;28;21010;-48
2022/07/14 07:36:51;;;;;;;1.60;1.50;;;26.30;50.40;;;;;;4946859;28;20525;-46
2022/07/14 07:39:39;;;;;;;2.30;1.67;;;26.30;50.40;;;;;;4946383;28;20476;-47
2022/07/14 07:42:07;;;;;;;1.83;1.50;;;26.30;50.50;;;;;;4943021;28;20504;-46
2022/07/14 07:44:36;;;;;;;1.33;1.23;;;26.30;50.40;;;;;;4944698;28;20475;-49
2022/07/14 07:47:04;;;;;;;1.97;1.50;;;26.20;50.50;;;;;;4942757;28;20972;-49
2022/07/14 07:49:33;;;;;;;2.47;1.60;;;26.20;50.40;;;;;;4951148;28;20486;-49
2022/07/14 07:52:06;;;;;;;2.03;1.30;;;26.20;50.40;;;;;;4961272;28;20833;-48
2022/07/14 07:54:36;;;;;;;2.03;1.83;;;26.20;50.50;;;;;;4949090;28;20514;-48
2022/07/14 07:57:24;;;;;;;1.80;1.60;;;26.20;50.40;;;;;;4954755;28;20566;-48
2022/07/14 07:59:52;;;;;;;2.70;1.90;;;26.20;50.40;;;;;;4954822;28;20475;-49
2022/07/14 08:02:24;;;;;;;2.00;1.70;;;26.20;50.40;;;;;;4950810;28;20947;-47
2022/07/14 08:04:53;;;;;;;2.80;2.27;;;26.20;50.30;;;;;;4961055;28;20470;-48
2022/07/14 08:07:23;;;;;;;1.83;1.60;;;26.20;50.40;;;;;;4953909;28;20463;-48
2022/07/14 08:09:51;;;;;;;2.30;1.80;;;26.20;50.40;;;;;;4948256;28;20449;-47
2022/07/14 08:12:26;;;;;;;12.80;6.17;;;26.20;50.50;;;;;;4946391;28;20195;-47
2022/07/14 08:14:54;;;;;;;15.70;6.23;;;26.20;50.20;;;;;;4954614;28;20467;-47
2022/07/14 08:17:23;;;;;;;14.23;5.50;;;26.20;49.90;;;;;;4943824;28;20468;-54
2022/07/14 08:19:52;;;;;;;9.37;3.90;;;26.20;49.70;;;;;;4949049;28;20467;-47
2022/07/14 08:22:26;;;;;;;23.40;6.37;;;26.10;49.10;;;;;;4944540;28;20480;-48
2022/07/14 08:24:55;;;;;;;12.63;5.40;;;26.10;49.10;;;;;;4946117;28;20780;-48
2022/07/14 08:27:26;;;;;;;6.93;4.50;;;26.10;50.60;;;;;;4950966;28;20537;-48
2022/07/14 08:29:55;;;;;;;9.63;4.57;;;26.00;49.10;;;;;;4954474;28;20478;-48
2022/07/14 08:32:35;;;;;;;12.63;4.37;;;26.00;49.30;;;;;;4951561;28;20454;-48
2022/07/14 08:35:05;;;;;;;9.93;5.23;;;26.00;49.00;;;;;;4935431;28;20876;-48
2022/07/14 08:37:35;;;;;;;12.27;5.20;;;26.00;48.80;;;;;;4942174;28;20555;-49
2022/07/14 08:40:06;;;;;;;13.93;5.23;;;26.00;48.80;;;;;;4949241;28;20501;-47
2022/07/14 08:42:36;;;;;;;9.20;4.03;;;26.10;48.60;;;;;;4951111;28;20444;-49
2022/07/14 08:45:08;;;;;;;27.70;6.50;;;26.10;48.70;;;;;;4944880;28;20471;-49
2022/07/14 08:47:37;;;;;;;10.60;4.33;;;26.10;48.60;;;;;;4947633;28;20487;-48
2022/07/14 08:50:07;;;;;;;6.40;3.80;;;26.10;48.20;;;;;;4957433;28;20501;-49
2022/07/14 08:52:37;;;;;;;8.13;4.07;;;26.00;48.30;;;;;;4953347;28;20498;-49
2022/07/14 08:55:07;;;;;;;9.80;4.47;;;26.00;47.50;;;;;;4948597;28;21016;-49
2022/07/14 08:57:36;;;;;;;8.20;3.60;;;26.00;48.60;;;;;;4952424;28;20959;-49
2022/07/14 09:00:09;;;;;;;8.27;4.33;;;26.00;48.00;;;;;;4953612;28;20462;-49
2022/07/14 09:02:38;;;;;;;9.80;4.70;;;26.00;47.50;;;;;;4950453;28;20444;-48
2022/07/14 09:05:26;;;;;;;7.50;4.00;;;26.00;47.30;;;;;;4952294;28;20911;-48
2022/07/14 09:07:57;;;;;;;13.17;4.90;;;26.00;47.10;;;;;;4952676;28;20448;-49
2022/07/14 09:10:27;;;;;;;9.17;4.10;;;25.90;47.40;;;;;;4938307;28;20550;-50
2022/07/14 09:13:11;;;;;;;6.53;3.27;;;25.90;47.20;;;;;;4954002;28;20479;-47
2022/07/14 09:15:46;;;;;;;7.30;3.47;;;25.90;47.70;;;;;;4943181;28;20467;-49
2022/07/14 09:18:21;;;;;;;6.90;3.10;;;25.90;47.30;;;;;;4951689;28;20479;-47
2022/07/14 09:20:51;;;;;;;5.50;3.10;;;25.90;47.40;;;;;;4959255;28;20689;-48
2022/07/14 09:23:28;;;;;;;5.53;3.17;;;25.90;47.40;;;;;;4946777;28;20428;-46
2022/07/14 09:26:16;;;;;;;10.43;2.73;;;25.90;46.60;;;;;;4950411;28;20447;-47
2022/07/14 09:28:46;;;;;;;6.97;3.50;;;25.90;47.00;;;;;;4939907;28;20460;-47
2022/07/14 09:31:23;;;;;;;6.70;3.00;;;25.90;46.70;;;;;;4944004;28;20432;-49
2022/07/14 09:33:53;;;;;;;8.63;3.33;;;25.90;46.50;;;;;;4940935;28;20478;-47
2022/07/14 09:36:26;;;;;;;4.70;2.73;;;25.90;45.70;;;;;;4947641;28;20515;-48
2022/07/14 09:39:00;;;;;;;10.17;3.10;;;25.90;45.50;;;;;;4947718;28;20724;-48
2022/07/14 09:44:10;;;;;;;7.23;2.20;;;25.90;45.00;;;;;;4988636;28;20470;-47
2022/07/14 09:46:47;;;;;;;4.93;2.70;;;25.90;44.50;;;;;;4982242;28;20454;-48
2022/07/14 09:49:16;;;;;;;7.13;2.80;;;25.90;43.90;;;;;;4990460;28;20469;-49
2022/07/14 09:51:55;;;;;;;7.63;2.70;;;25.80;43.70;;;;;;4985289;28;20894;-49
2022/07/14 09:54:48;;;;;;;5.07;2.70;;;25.80;44.40;;;;;;4984953;28;20726;-49
2022/07/14 09:57:27;;;;;;;3.60;2.37;;;25.80;44.80;;;;;;4974691;28;20458;-48
2022/07/14 09:59:58;;;;;;;5.43;3.17;;;25.80;45.10;;;;;;4991307;28;20474;-49
2022/07/14 10:02:28;;;;;;;4.10;2.60;;;25.80;45.30;;;;;;4984657;28;20484;-49
2022/07/14 10:05:01;;;;;;;2.93;2.00;;;25.80;45.60;;;;;;4990818;28;20482;-49
2022/07/14 10:07:36;;;;;;;3.80;2.13;;;25.80;45.40;;;;;;4991403;28;20470;-48
2022/07/14 10:10:08;;;;;;;5.57;2.53;;;25.80;45.10;;;;;;4982833;28;20812;-48
2022/07/14 10:12:37;;;;;;;4.63;2.50;;;25.90;45.50;;;;;;4992226;28;20438;-49
2022/07/14 10:15:08;;;;;;;3.60;2.17;;;25.90;45.70;;;;;;4990564;28;20473;-49
2022/07/14 10:17:39;;;;;;;5.07;2.97;;;25.90;45.90;;;;;;4990029;28;20956;-48
2022/07/14 10:20:10;;;;;;;3.40;1.90;;;25.90;45.90;;;;;;4990918;28;20462;-48
2022/07/14 10:22:38;;;;;;;4.80;2.30;;;25.90;45.80;;;;;;4992065;28;20847;-48
2022/07/14 10:25:10;;;;;;;5.17;2.17;;;25.90;45.90;;;;;;4986927;28;20488;-49
2022/07/14 10:27:41;;;;;;;3.17;1.93;;;25.90;46.00;;;;;;4991182;28;20458;-48
2022/07/14 10:30:11;;;;;;;4.80;2.17;;;25.90;46.10;;;;;;4990610;28;20887;-48
2022/07/14 10:32:49;;;;;;;3.33;2.33;;;25.90;45.60;;;;;;4989255;28;20442;-48
2022/07/14 10:35:28;;;;;;;5.80;2.70;;;25.90;45.10;;;;;;4989339;28;20997;-49
2022/07/14 10:38:15;;;;;;;3.00;2.70;;;25.90;45.60;;;;;;4969906;28;20437;-48
2022/07/14 10:40:53;;;;;;;5.80;2.17;;;25.90;45.30;;;;;;4964734;28;20490;-49
2022/07/14 10:43:25;;;;;;;4.03;2.13;;;25.90;45.30;;;;;;4972830;28;20477;-49
2022/07/14 10:45:56;;;;;;;6.40;2.50;;;25.90;45.40;;;;;;4990558;28;20553;-48
2022/07/14 10:48:32;;;;;;;3.33;1.90;;;25.90;45.70;;;;;;4986547;28;20450;-48
2022/07/14 10:51:17;;;;;;;6.03;2.27;;;25.90;44.80;;;;;;4987207;28;20456;-48
2022/07/14 10:54:10;;;;;;;2.70;1.80;;;25.90;45.40;;;;;;4982889;28;20485;-49
2022/07/14 10:57:12;;;;;;;4.17;2.00;;;25.90;45.50;;;;;;4989326;28;20524;-48
2022/07/14 10:59:42;;;;;;;4.80;2.13;;;25.90;46.20;;;;;;4986279;28;20568;-48
2022/07/14 11:02:33;;;;;;;3.10;1.57;;;25.90;45.30;;;;;;4986573;28;20544;-48
2022/07/14 11:05:14;;;;;;;3.30;1.50;;;25.90;45.00;;;;;;4986944;28;20561;-48
2022/07/14 11:07:46;;;;;;;5.20;2.13;;;25.90;45.20;;;;;;4990048;28;20454;-49
2022/07/14 11:11:08;;;;;;;2.90;2.17;;;25.90;45.40;;;;;;4984155;28;20469;-49
2022/07/14 11:14:12;;;;;;;2.47;1.83;;;25.90;45.90;;;;;;4983058;28;20469;-49
2022/07/14 11:16:57;;;;;;;4.63;2.10;;;25.90;45.90;;;;;;4968677;28;20461;-49
2022/07/14 11:19:31;;;;;;;3.03;1.70;;;25.90;45.90;;;;;;4981382;28;20477;-48
2022/07/14 11:22:20;;;;;;;2.93;1.90;;;25.90;44.70;;;;;;4990096;28;20441;-49
2022/07/14 11:24:55;;;;;;;2.20;1.83;;;25.90;46.70;;;;;;4979419;28;20847;-49
2022/07/14 11:27:28;;;;;;;4.43;2.33;;;25.90;45.50;;;;;;4991097;28;20467;-49
2022/07/14 11:30:19;;;;;;;4.30;1.90;;;25.90;45.80;;;;;;4991816;28;20462;-48
2022/07/14 11:33:07;;;;;;;3.73;1.93;;;25.90;44.70;;;;;;4989002;28;20949;-48
2022/07/14 11:39:22;;;;;;;1.93;1.53;;;25.90;44.80;;;;;;4988818;28;20465;-48
2022/07/14 11:42:00;;;;;;;3.37;1.93;;;25.90;44.90;;;;;;4976046;28;20452;-48
2022/07/14 11:44:54;;;;;;;2.63;1.50;;;25.90;45.10;;;;;;4986583;28;20457;-48
2022/07/14 11:47:28;;;;;;;2.50;1.60;;;25.90;45.30;;;;;;4991593;28;20999;-49
2022/07/14 11:50:00;;;;;;;2.63;1.60;;;25.90;45.60;;;;;;4993594;28;20520;-47
2022/07/14 11:52:40;;;;;;;3.43;2.43;;;25.90;45.70;;;;;;4989862;28;20433;-49
2022/07/14 11:55:10;;;;;;;1.80;1.53;;;25.90;45.50;;;;;;4988124;28;20528;-48
2022/07/14 11:57:39;;;;;;;3.03;1.60;;;25.90;45.60;;;;;;4993932;28;20456;-48
2022/07/14 12:00:11;;;;;;;2.43;1.57;;;25.90;45.70;;;;;;4993260;28;20815;-48
2022/07/14 12:02:53;;;;;;;2.50;1.90;;;25.90;45.60;;;;;;4991521;28;20438;-47
2022/07/14 12:05:23;;;;;;;4.00;2.13;;;25.90;45.60;;;;;;4985644;28;20469;-48
2022/07/14 12:07:54;;;;;;;1.47;1.27;;;25.90;45.20;;;;;;4992759;28;20484;-48
2022/07/14 12:10:36;;;;;;;3.23;1.40;;;26.00;45.80;;;;;;4985907;28;20470;-50
2022/07/14 12:13:04;;;;;;;3.00;1.87;;;25.90;45.90;;;;;;4993668;28;20940;-48
2022/07/14 12:15:34;;;;;;;2.40;1.43;;;26.00;46.10;;;;;;4982961;28;20461;-49
2022/07/14 12:18:05;;;;;;;3.60;1.73;;;25.90;45.90;;;;;;4991828;28;20466;-49
2022/07/14 12:20:41;;;;;;;2.23;1.70;;;26.00;46.00;;;;;;4982460;28;20466;-49
2022/07/14 12:23:10;;;;;;;2.60;1.40;;;26.00;47.20;;;;;;4990297;28;20459;-48
2022/07/14 12:25:40;;;;;;;2.87;1.70;;;25.90;46.10;;;;;;4992212;28;20823;-49
2022/07/14 12:28:10;;;;;;;2.63;1.70;;;26.00;46.30;;;;;;4992268;28;20441;-48
2022/07/14 12:30:43;;;;;;;2.10;1.70;;;26.00;46.10;;;;;;4986961;28;20442;-48
2022/07/14 12:33:15;;;;;;;3.23;1.80;;;26.00;46.10;;;;;;4984623;28;20942;-48
2022/07/14 12:35:45;;;;;;;3.33;1.67;;;26.00;46.10;;;;;;4993072;28;20565;-49
2022/07/14 12:38:16;;;;;;;4.13;1.60;;;26.00;46.20;;;;;;4991141;28;20454;-48
2022/07/14 12:40:49;;;;;;;3.37;1.73;;;26.00;47.00;;;;;;4985226;28;20469;-48
2022/07/14 12:43:22;;;;;;;2.53;1.50;;;26.00;45.80;;;;;;4989497;28;20461;-49
2022/07/14 12:46:02;;;;;;;3.57;1.50;;;26.00;46.30;;;;;;4987413;28;20516;-49
2022/07/14 12:48:35;;;;;;;3.20;1.70;;;26.00;46.30;;;;;;4986385;28;20465;-49
2022/07/14 12:51:23;;;;;;;2.07;1.90;;;26.00;46.20;;;;;;4992301;28;20848;-48
2022/07/14 12:53:59;;;;;;;1.93;1.70;;;26.00;46.00;;;;;;4986171;28;21159;-48
2022/07/14 12:56:30;;;;;;;2.13;1.33;;;26.00;45.70;;;;;;4988891;28;20485;-48
2022/07/14 12:59:00;;;;;;;3.20;1.60;;;26.00;46.10;;;;;;4991301;28;20484;-48
2022/07/14 13:01:29;;;;;;;3.13;1.90;;;26.00;46.40;;;;;;4988330;28;20458;-49
2022/07/14 13:04:00;;;;;;;2.03;1.80;;;26.00;46.20;;;;;;4986952;28;20569;-49
2022/07/14 13:06:42;;;;;;;1.63;1.53;;;26.00;45.80;;;;;;4989634;28;20462;-48
2022/07/14 13:09:16;;;;;;;2.57;1.83;;;26.00;46.30;;;;;;4984501;28;20474;-48
2022/07/14 13:11:47;;;;;;;2.30;1.43;;;26.00;46.20;;;;;;4992476;28;20533;-49
2022/07/14 13:14:16;;;;;;;1.87;1.70;;;26.00;46.30;;;;;;4991761;28;21019;-49
2022/07/14 13:16:46;;;;;;;2.27;1.70;;;26.00;46.10;;;;;;4989704;28;20482;-49
2022/07/14 13:19:22;;;;;;;1.50;1.40;;;26.00;46.20;;;;;;4989457;28;20573;-49
2022/07/14 13:22:05;;;;;;;1.47;1.37;;;26.00;46.00;;;;;;4989540;28;20430;-48